sensor_id;sensor_type;location;lat;lon;timestamp;P1;durP1;ratioP1;P2;durP2;ratioP2
75320;SDS011;68337;52.196;5.660;2023-05-02T00:00:35;24.77;;;16.20;;
75320;SDS011;68337;52.196;5.660;2023-05-02T00:03:02;26.85;;;16.30;;
75320;SDS011;68337;52.196;5.660;2023-05-02T00:05:28;24.23;;;15.70;;
75320;SDS011;68337;52.196;5.660;2023-05-02T00:07:54;24.20;;;15.55;;
75320;SDS011;68337;52.196;5.660;2023-05-02T00:10:20;23.95;;;15.52;;
75320;SDS011;68337;52.196;5.660;2023-05-02T00:12:46;27.70;;;15.52;;
75320;SDS011;68337;52.196;5.660;2023-05-02T00:15:12;26.00;;;16.38;;
75320;SDS011;68337;52.196;5.660;2023-05-02T00:17:40;30.92;;;17.63;;
75320;SDS011;68337;52.196;5.660;2023-05-02T00:20:10;23.73;;;15.30;;
75320;SDS011;68337;52.196;5.660;2023-05-02T00:22:36;29.08;;;15.63;;
75320;SDS011;68337;52.196;5.660;2023-05-02T00:25:02;22.80;;;15.20;;
75320;SDS011;68337;52.196;5.660;2023-05-02T00:27:29;31.55;;;17.13;;
75320;SDS011;68337;52.196;5.660;2023-05-02T00:29:55;26.88;;;16.95;;
75320;SDS011;68337;52.196;5.660;2023-05-02T00:32:22;28.88;;;16.80;;
75320;SDS011;68337;52.196;5.660;2023-05-02T00:34:47;28.50;;;16.02;;
75320;SDS011;68337;52.196;5.660;2023-05-02T00:37:13;24.50;;;16.60;;
75320;SDS011;68337;52.196;5.660;2023-05-02T00:39:39;25.05;;;15.68;;
75320;SDS011;68337;52.196;5.660;2023-05-02T00:42:04;29.20;;;16.73;;
75320;SDS011;68337;52.196;5.660;2023-05-02T00:44:30;29.13;;;16.42;;
75320;SDS011;68337;52.196;5.660;2023-05-02T00:46:56;25.27;;;16.50;;
75320;SDS011;68337;52.196;5.660;2023-05-02T00:49:23;30.48;;;16.85;;
75320;SDS011;68337;52.196;5.660;2023-05-02T00:51:49;28.52;;;17.00;;
75320;SDS011;68337;52.196;5.660;2023-05-02T00:54:15;25.67;;;15.52;;
75320;SDS011;68337;52.196;5.660;2023-05-02T00:56:41;23.40;;;12.65;;
75320;SDS011;68337;52.196;5.660;2023-05-02T00:59:07;22.23;;;11.65;;
75320;SDS011;68337;52.196;5.660;2023-05-02T01:07:16;15.85;;;10.73;;
75320;SDS011;68337;52.196;5.660;2023-05-02T01:12:53;18.48;;;9.70;;
75320;SDS011;68337;52.196;5.660;2023-05-02T01:15:40;20.27;;;9.15;;
75320;SDS011;68337;52.196;5.660;2023-05-02T01:18:08;14.65;;;8.85;;
75320;SDS011;68337;52.196;5.660;2023-05-02T01:20:36;17.10;;;8.18;;
75320;SDS011;68337;52.196;5.660;2023-05-02T01:23:09;13.00;;;7.63;;
75320;SDS011;68337;52.196;5.660;2023-05-02T01:25:57;10.85;;;5.20;;
75320;SDS011;68337;52.196;5.660;2023-05-02T01:29:00;15.05;;;5.13;;
75320;SDS011;68337;52.196;5.660;2023-05-02T01:31:36;15.40;;;6.65;;
75320;SDS011;68337;52.196;5.660;2023-05-02T01:34:07;20.48;;;6.20;;
75320;SDS011;68337;52.196;5.660;2023-05-02T01:36:34;17.63;;;5.68;;
75320;SDS011;68337;52.196;5.660;2023-05-02T01:39:02;16.73;;;5.97;;
75320;SDS011;68337;52.196;5.660;2023-05-02T01:41:31;15.88;;;4.93;;
75320;SDS011;68337;52.196;5.660;2023-05-02T01:43:59;12.85;;;3.88;;
75320;SDS011;68337;52.196;5.660;2023-05-02T01:46:29;16.08;;;4.50;;
75320;SDS011;68337;52.196;5.660;2023-05-02T01:48:57;16.83;;;4.28;;
75320;SDS011;68337;52.196;5.660;2023-05-02T01:51:27;17.67;;;4.50;;
75320;SDS011;68337;52.196;5.660;2023-05-02T01:54:06;10.10;;;3.35;;
75320;SDS011;68337;52.196;5.660;2023-05-02T01:56:33;13.40;;;3.90;;
75320;SDS011;68337;52.196;5.660;2023-05-02T01:59:01;10.15;;;3.58;;
75320;SDS011;68337;52.196;5.660;2023-05-02T02:01:44;11.82;;;3.60;;
75320;SDS011;68337;52.196;5.660;2023-05-02T02:04:12;11.05;;;3.70;;
75320;SDS011;68337;52.196;5.660;2023-05-02T02:06:41;10.98;;;3.30;;
75320;SDS011;68337;52.196;5.660;2023-05-02T02:09:10;12.73;;;3.67;;
75320;SDS011;68337;52.196;5.660;2023-05-02T02:11:48;8.45;;;3.42;;
75320;SDS011;68337;52.196;5.660;2023-05-02T02:14:19;6.07;;;2.60;;
75320;SDS011;68337;52.196;5.660;2023-05-02T02:16:49;9.50;;;3.47;;
75320;SDS011;68337;52.196;5.660;2023-05-02T02:19:17;10.95;;;3.55;;
75320;SDS011;68337;52.196;5.660;2023-05-02T02:21:44;7.53;;;2.78;;
75320;SDS011;68337;52.196;5.660;2023-05-02T02:24:12;9.88;;;3.22;;
75320;SDS011;68337;52.196;5.660;2023-05-02T02:26:40;9.43;;;3.00;;
75320;SDS011;68337;52.196;5.660;2023-05-02T02:29:06;6.95;;;2.45;;
75320;SDS011;68337;52.196;5.660;2023-05-02T02:31:33;8.95;;;3.10;;
75320;SDS011;68337;52.196;5.660;2023-05-02T02:33:59;8.13;;;2.38;;
75320;SDS011;68337;52.196;5.660;2023-05-02T02:36:38;7.45;;;2.75;;
75320;SDS011;68337;52.196;5.660;2023-05-02T02:39:41;10.90;;;2.22;;
75320;SDS011;68337;52.196;5.660;2023-05-02T02:42:17;9.07;;;2.45;;
75320;SDS011;68337;52.196;5.660;2023-05-02T02:47:53;7.60;;;2.28;;
75320;SDS011;68337;52.196;5.660;2023-05-02T02:56:21;10.85;;;2.85;;
75320;SDS011;68337;52.196;5.660;2023-05-02T02:58:56;4.35;;;2.22;;
75320;SDS011;68337;52.196;5.660;2023-05-02T03:01:29;7.18;;;2.40;;
75320;SDS011;68337;52.196;5.660;2023-05-02T03:03:56;9.73;;;3.05;;
75320;SDS011;68337;52.196;5.660;2023-05-02T03:06:22;10.98;;;2.97;;
75320;SDS011;68337;52.196;5.660;2023-05-02T03:08:49;6.45;;;2.45;;
75320;SDS011;68337;52.196;5.660;2023-05-02T03:11:14;9.23;;;2.60;;
75320;SDS011;68337;52.196;5.660;2023-05-02T03:13:40;7.80;;;3.10;;
75320;SDS011;68337;52.196;5.660;2023-05-02T03:18:53;9.32;;;2.60;;
75320;SDS011;68337;52.196;5.660;2023-05-02T03:21:19;11.75;;;2.42;;
75320;SDS011;68337;52.196;5.660;2023-05-02T03:23:44;14.05;;;3.10;;
75320;SDS011;68337;52.196;5.660;2023-05-02T03:26:10;8.65;;;2.50;;
75320;SDS011;68337;52.196;5.660;2023-05-02T03:28:36;11.93;;;2.30;;
75320;SDS011;68337;52.196;5.660;2023-05-02T03:31:02;9.38;;;2.75;;
75320;SDS011;68337;52.196;5.660;2023-05-02T03:33:27;8.30;;;2.65;;
75320;SDS011;68337;52.196;5.660;2023-05-02T03:35:53;7.95;;;2.88;;
75320;SDS011;68337;52.196;5.660;2023-05-02T03:38:19;9.13;;;2.20;;
75320;SDS011;68337;52.196;5.660;2023-05-02T03:40:45;5.53;;;2.20;;
75320;SDS011;68337;52.196;5.660;2023-05-02T03:43:10;5.07;;;2.28;;
75320;SDS011;68337;52.196;5.660;2023-05-02T03:45:38;4.97;;;2.10;;
75320;SDS011;68337;52.196;5.660;2023-05-02T03:48:03;9.05;;;2.17;;
75320;SDS011;68337;52.196;5.660;2023-05-02T03:50:29;7.25;;;2.00;;
75320;SDS011;68337;52.196;5.660;2023-05-02T03:52:55;8.27;;;2.00;;
75320;SDS011;68337;52.196;5.660;2023-05-02T03:55:21;8.43;;;2.30;;
75320;SDS011;68337;52.196;5.660;2023-05-02T03:57:46;7.10;;;1.63;;
75320;SDS011;68337;52.196;5.660;2023-05-02T04:00:12;7.57;;;2.30;;
75320;SDS011;68337;52.196;5.660;2023-05-02T04:02:38;9.43;;;2.20;;
75320;SDS011;68337;52.196;5.660;2023-05-02T04:05:04;8.48;;;2.20;;
75320;SDS011;68337;52.196;5.660;2023-05-02T04:07:30;8.32;;;2.33;;
75320;SDS011;68337;52.196;5.660;2023-05-02T04:09:55;2.97;;;2.28;;
75320;SDS011;68337;52.196;5.660;2023-05-02T04:12:21;11.05;;;2.20;;
75320;SDS011;68337;52.196;5.660;2023-05-02T04:14:47;6.70;;;2.85;;
75320;SDS011;68337;52.196;5.660;2023-05-02T04:17:13;5.13;;;1.80;;
75320;SDS011;68337;52.196;5.660;2023-05-02T04:19:39;8.88;;;2.35;;
75320;SDS011;68337;52.196;5.660;2023-05-02T04:22:06;10.23;;;1.90;;
75320;SDS011;68337;52.196;5.660;2023-05-02T04:24:32;8.00;;;2.40;;
75320;SDS011;68337;52.196;5.660;2023-05-02T04:26:58;7.07;;;2.55;;
75320;SDS011;68337;52.196;5.660;2023-05-02T04:29:23;11.20;;;3.20;;
75320;SDS011;68337;52.196;5.660;2023-05-02T04:31:50;8.02;;;2.10;;
75320;SDS011;68337;52.196;5.660;2023-05-02T04:34:16;9.90;;;2.33;;
75320;SDS011;68337;52.196;5.660;2023-05-02T04:36:43;8.45;;;2.55;;
75320;SDS011;68337;52.196;5.660;2023-05-02T04:39:09;8.23;;;2.65;;
75320;SDS011;68337;52.196;5.660;2023-05-02T04:41:35;14.52;;;3.05;;
75320;SDS011;68337;52.196;5.660;2023-05-02T04:44:01;11.80;;;3.25;;
75320;SDS011;68337;52.196;5.660;2023-05-02T04:46:26;10.70;;;2.53;;
75320;SDS011;68337;52.196;5.660;2023-05-02T04:48:52;12.38;;;2.90;;
75320;SDS011;68337;52.196;5.660;2023-05-02T04:51:18;10.95;;;2.72;;
75320;SDS011;68337;52.196;5.660;2023-05-02T04:53:44;12.23;;;2.47;;
75320;SDS011;68337;52.196;5.660;2023-05-02T04:56:09;10.18;;;2.38;;
75320;SDS011;68337;52.196;5.660;2023-05-02T04:58:35;8.68;;;2.85;;
75320;SDS011;68337;52.196;5.660;2023-05-02T05:01:01;7.43;;;3.05;;
75320;SDS011;68337;52.196;5.660;2023-05-02T05:03:27;13.55;;;3.08;;
75320;SDS011;68337;52.196;5.660;2023-05-02T05:05:57;15.02;;;2.70;;
75320;SDS011;68337;52.196;5.660;2023-05-02T05:08:22;9.25;;;2.72;;
75320;SDS011;68337;52.196;5.660;2023-05-02T05:10:48;11.25;;;2.90;;
75320;SDS011;68337;52.196;5.660;2023-05-02T05:13:14;15.13;;;3.67;;
75320;SDS011;68337;52.196;5.660;2023-05-02T05:15:40;13.43;;;3.42;;
75320;SDS011;68337;52.196;5.660;2023-05-02T05:18:06;18.08;;;4.05;;
75320;SDS011;68337;52.196;5.660;2023-05-02T05:20:32;12.25;;;3.83;;
75320;SDS011;68337;52.196;5.660;2023-05-02T05:22:57;18.75;;;3.55;;
75320;SDS011;68337;52.196;5.660;2023-05-02T05:25:26;15.93;;;3.85;;
75320;SDS011;68337;52.196;5.660;2023-05-02T05:27:54;12.60;;;3.85;;
75320;SDS011;68337;52.196;5.660;2023-05-02T05:30:20;17.15;;;4.78;;
75320;SDS011;68337;52.196;5.660;2023-05-02T05:32:46;14.35;;;3.83;;
75320;SDS011;68337;52.196;5.660;2023-05-02T05:35:12;14.25;;;3.60;;
75320;SDS011;68337;52.196;5.660;2023-05-02T05:37:38;17.58;;;4.05;;
75320;SDS011;68337;52.196;5.660;2023-05-02T05:40:07;9.35;;;3.92;;
75320;SDS011;68337;52.196;5.660;2023-05-02T05:42:33;12.13;;;3.85;;
75320;SDS011;68337;52.196;5.660;2023-05-02T05:44:59;12.52;;;4.03;;
75320;SDS011;68337;52.196;5.660;2023-05-02T05:47:24;11.50;;;3.47;;
75320;SDS011;68337;52.196;5.660;2023-05-02T05:49:53;10.60;;;3.55;;
75320;SDS011;68337;52.196;5.660;2023-05-02T05:52:20;14.60;;;3.25;;
75320;SDS011;68337;52.196;5.660;2023-05-02T05:54:46;12.05;;;3.70;;
75320;SDS011;68337;52.196;5.660;2023-05-02T05:57:11;14.52;;;3.75;;
75320;SDS011;68337;52.196;5.660;2023-05-02T05:59:37;16.60;;;3.13;;
75320;SDS011;68337;52.196;5.660;2023-05-02T06:02:03;14.88;;;3.28;;
75320;SDS011;68337;52.196;5.660;2023-05-02T06:04:29;9.48;;;2.95;;
75320;SDS011;68337;52.196;5.660;2023-05-02T06:06:55;10.38;;;2.80;;
75320;SDS011;68337;52.196;5.660;2023-05-02T06:09:21;18.50;;;3.47;;
75320;SDS011;68337;52.196;5.660;2023-05-02T06:11:47;11.60;;;3.13;;
75320;SDS011;68337;52.196;5.660;2023-05-02T06:14:13;10.68;;;3.10;;
75320;SDS011;68337;52.196;5.660;2023-05-02T06:16:38;7.72;;;2.83;;
75320;SDS011;68337;52.196;5.660;2023-05-02T06:19:04;13.90;;;3.10;;
75320;SDS011;68337;52.196;5.660;2023-05-02T06:21:30;14.27;;;2.55;;
75320;SDS011;68337;52.196;5.660;2023-05-02T06:23:56;14.60;;;2.70;;
75320;SDS011;68337;52.196;5.660;2023-05-02T06:26:21;7.20;;;2.50;;
75320;SDS011;68337;52.196;5.660;2023-05-02T06:28:47;14.07;;;3.67;;
75320;SDS011;68337;52.196;5.660;2023-05-02T06:31:13;10.40;;;3.17;;
75320;SDS011;68337;52.196;5.660;2023-05-02T06:33:40;12.50;;;3.40;;
75320;SDS011;68337;52.196;5.660;2023-05-02T06:36:06;9.15;;;2.95;;
75320;SDS011;68337;52.196;5.660;2023-05-02T06:38:32;13.60;;;2.72;;
75320;SDS011;68337;52.196;5.660;2023-05-02T06:40:58;11.57;;;3.17;;
75320;SDS011;68337;52.196;5.660;2023-05-02T06:43:24;9.73;;;2.78;;
75320;SDS011;68337;52.196;5.660;2023-05-02T06:45:52;13.25;;;2.67;;
75320;SDS011;68337;52.196;5.660;2023-05-02T06:48:22;14.27;;;2.90;;
75320;SDS011;68337;52.196;5.660;2023-05-02T06:50:50;18.25;;;3.17;;
75320;SDS011;68337;52.196;5.660;2023-05-02T06:53:17;14.02;;;3.28;;
75320;SDS011;68337;52.196;5.660;2023-05-02T06:55:43;10.45;;;3.22;;
75320;SDS011;68337;52.196;5.660;2023-05-02T06:58:10;9.57;;;2.75;;
75320;SDS011;68337;52.196;5.660;2023-05-02T07:00:36;6.88;;;2.72;;
75320;SDS011;68337;52.196;5.660;2023-05-02T07:03:03;12.98;;;2.58;;
75320;SDS011;68337;52.196;5.660;2023-05-02T07:05:28;13.88;;;2.83;;
75320;SDS011;68337;52.196;5.660;2023-05-02T07:07:55;8.88;;;3.08;;
75320;SDS011;68337;52.196;5.660;2023-05-02T07:10:21;12.38;;;2.53;;
75320;SDS011;68337;52.196;5.660;2023-05-02T07:12:47;9.00;;;2.30;;
75320;SDS011;68337;52.196;5.660;2023-05-02T07:15:17;9.25;;;2.20;;
75320;SDS011;68337;52.196;5.660;2023-05-02T07:17:46;14.02;;;2.70;;
75320;SDS011;68337;52.196;5.660;2023-05-02T07:20:13;10.20;;;2.40;;
75320;SDS011;68337;52.196;5.660;2023-05-02T07:22:40;10.15;;;2.90;;
75320;SDS011;68337;52.196;5.660;2023-05-02T07:25:06;7.40;;;2.47;;
75320;SDS011;68337;52.196;5.660;2023-05-02T07:27:33;7.90;;;2.33;;
75320;SDS011;68337;52.196;5.660;2023-05-02T07:29:59;9.75;;;2.00;;
75320;SDS011;68337;52.196;5.660;2023-05-02T07:32:25;11.38;;;2.28;;
75320;SDS011;68337;52.196;5.660;2023-05-02T07:34:51;9.73;;;2.53;;
75320;SDS011;68337;52.196;5.660;2023-05-02T07:37:23;5.18;;;2.10;;
75320;SDS011;68337;52.196;5.660;2023-05-02T07:39:48;5.53;;;2.05;;
75320;SDS011;68337;52.196;5.660;2023-05-02T07:42:14;7.68;;;2.17;;
75320;SDS011;68337;52.196;5.660;2023-05-02T07:44:41;10.82;;;2.30;;
75320;SDS011;68337;52.196;5.660;2023-05-02T07:47:07;7.32;;;2.13;;
75320;SDS011;68337;52.196;5.660;2023-05-02T07:49:34;6.72;;;1.95;;
75320;SDS011;68337;52.196;5.660;2023-05-02T07:52:00;12.98;;;2.33;;
75320;SDS011;68337;52.196;5.660;2023-05-02T07:54:26;4.95;;;1.63;;
75320;SDS011;68337;52.196;5.660;2023-05-02T07:56:52;5.82;;;2.10;;
75320;SDS011;68337;52.196;5.660;2023-05-02T07:59:18;4.38;;;2.08;;
75320;SDS011;68337;52.196;5.660;2023-05-02T08:01:44;10.02;;;2.13;;
75320;SDS011;68337;52.196;5.660;2023-05-02T08:04:11;5.95;;;2.17;;
75320;SDS011;68337;52.196;5.660;2023-05-02T08:06:37;6.03;;;1.85;;
75320;SDS011;68337;52.196;5.660;2023-05-02T08:09:03;9.50;;;2.20;;
75320;SDS011;68337;52.196;5.660;2023-05-02T08:11:29;7.47;;;2.15;;
75320;SDS011;68337;52.196;5.660;2023-05-02T08:13:59;6.97;;;1.95;;
75320;SDS011;68337;52.196;5.660;2023-05-02T08:16:25;11.07;;;2.20;;
75320;SDS011;68337;52.196;5.660;2023-05-02T08:18:51;7.45;;;2.00;;
75320;SDS011;68337;52.196;5.660;2023-05-02T08:21:17;10.13;;;2.03;;
75320;SDS011;68337;52.196;5.660;2023-05-02T08:23:43;5.22;;;1.90;;
75320;SDS011;68337;52.196;5.660;2023-05-02T08:26:11;6.80;;;2.38;;
75320;SDS011;68337;52.196;5.660;2023-05-02T08:28:37;10.20;;;1.92;;
75320;SDS011;68337;52.196;5.660;2023-05-02T08:31:03;6.35;;;1.90;;
75320;SDS011;68337;52.196;5.660;2023-05-02T08:33:29;7.22;;;2.05;;
75320;SDS011;68337;52.196;5.660;2023-05-02T08:35:55;8.55;;;2.15;;
75320;SDS011;68337;52.196;5.660;2023-05-02T08:38:21;6.15;;;1.83;;
75320;SDS011;68337;52.196;5.660;2023-05-02T08:40:47;4.72;;;1.50;;
75320;SDS011;68337;52.196;5.660;2023-05-02T08:43:15;4.78;;;1.92;;
75320;SDS011;68337;52.196;5.660;2023-05-02T08:45:42;3.25;;;1.50;;
75320;SDS011;68337;52.196;5.660;2023-05-02T08:48:10;3.63;;;1.50;;
75320;SDS011;68337;52.196;5.660;2023-05-02T08:50:38;11.40;;;3.60;;
75320;SDS011;68337;52.196;5.660;2023-05-02T08:53:08;4.47;;;1.70;;
75320;SDS011;68337;52.196;5.660;2023-05-02T08:55:48;3.00;;;1.40;;
75320;SDS011;68337;52.196;5.660;2023-05-02T08:58:17;8.32;;;1.73;;
75320;SDS011;68337;52.196;5.660;2023-05-02T09:00:43;3.63;;;1.80;;
75320;SDS011;68337;52.196;5.660;2023-05-02T09:06:13;4.30;;;1.38;;
75320;SDS011;68337;52.196;5.660;2023-05-02T09:08:42;5.43;;;1.52;;
75320;SDS011;68337;52.196;5.660;2023-05-02T09:11:11;1.75;;;1.60;;
75320;SDS011;68337;52.196;5.660;2023-05-02T09:13:41;5.28;;;2.00;;
75320;SDS011;68337;52.196;5.660;2023-05-02T09:16:11;4.75;;;1.65;;
75320;SDS011;68337;52.196;5.660;2023-05-02T09:18:44;6.43;;;1.67;;
75320;SDS011;68337;52.196;5.660;2023-05-02T09:21:16;4.80;;;1.90;;
75320;SDS011;68337;52.196;5.660;2023-05-02T09:23:51;5.40;;;1.83;;
75320;SDS011;68337;52.196;5.660;2023-05-02T09:26:23;5.30;;;1.48;;
75320;SDS011;68337;52.196;5.660;2023-05-02T09:28:51;6.40;;;1.50;;
75320;SDS011;68337;52.196;5.660;2023-05-02T09:31:21;9.00;;;2.17;;
75320;SDS011;68337;52.196;5.660;2023-05-02T09:33:50;3.88;;;1.60;;
75320;SDS011;68337;52.196;5.660;2023-05-02T09:36:17;4.72;;;1.52;;
75320;SDS011;68337;52.196;5.660;2023-05-02T09:38:46;6.50;;;2.20;;
75320;SDS011;68337;52.196;5.660;2023-05-02T09:41:13;3.55;;;1.50;;
75320;SDS011;68337;52.196;5.660;2023-05-02T09:43:41;6.90;;;1.73;;
75320;SDS011;68337;52.196;5.660;2023-05-02T09:46:08;5.13;;;1.75;;
75320;SDS011;68337;52.196;5.660;2023-05-02T09:48:51;7.38;;;1.85;;
75320;SDS011;68337;52.196;5.660;2023-05-02T09:51:19;6.45;;;2.17;;
75320;SDS011;68337;52.196;5.660;2023-05-02T09:53:46;3.17;;;1.98;;
75320;SDS011;68337;52.196;5.660;2023-05-02T09:56:12;9.35;;;1.92;;
75320;SDS011;68337;52.196;5.660;2023-05-02T09:58:38;6.80;;;1.92;;
75320;SDS011;68337;52.196;5.660;2023-05-02T10:01:07;5.03;;;1.80;;
75320;SDS011;68337;52.196;5.660;2023-05-02T10:03:38;4.93;;;2.28;;
75320;SDS011;68337;52.196;5.660;2023-05-02T10:06:05;5.57;;;1.90;;
75320;SDS011;68337;52.196;5.660;2023-05-02T10:08:33;5.20;;;1.80;;
75320;SDS011;68337;52.196;5.660;2023-05-02T10:10:59;4.28;;;1.55;;
75320;SDS011;68337;52.196;5.660;2023-05-02T10:13:31;9.82;;;2.30;;
75320;SDS011;68337;52.196;5.660;2023-05-02T10:18:27;5.55;;;2.05;;
75320;SDS011;68337;52.196;5.660;2023-05-02T10:21:04;8.18;;;2.30;;
75320;SDS011;68337;52.196;5.660;2023-05-02T10:23:35;6.43;;;2.08;;
75320;SDS011;68337;52.196;5.660;2023-05-02T10:26:06;4.28;;;1.90;;
75320;SDS011;68337;52.196;5.660;2023-05-02T10:28:35;6.03;;;2.25;;
75320;SDS011;68337;52.196;5.660;2023-05-02T10:31:01;4.28;;;2.20;;
75320;SDS011;68337;52.196;5.660;2023-05-02T10:33:29;7.45;;;2.00;;
75320;SDS011;68337;52.196;5.660;2023-05-02T10:35:58;7.38;;;2.30;;
75320;SDS011;68337;52.196;5.660;2023-05-02T10:38:24;5.10;;;2.25;;
75320;SDS011;68337;52.196;5.660;2023-05-02T10:40:55;6.88;;;2.15;;
75320;SDS011;68337;52.196;5.660;2023-05-02T10:43:30;9.07;;;2.60;;
75320;SDS011;68337;52.196;5.660;2023-05-02T10:45:58;4.82;;;1.88;;
75320;SDS011;68337;52.196;5.660;2023-05-02T10:48:26;8.25;;;2.17;;
75320;SDS011;68337;52.196;5.660;2023-05-02T10:50:53;5.20;;;2.25;;
75320;SDS011;68337;52.196;5.660;2023-05-02T10:56:13;8.27;;;2.10;;
75320;SDS011;68337;52.196;5.660;2023-05-02T10:58:46;7.60;;;1.92;;
75320;SDS011;68337;52.196;5.660;2023-05-02T11:03:55;5.70;;;2.30;;
75320;SDS011;68337;52.196;5.660;2023-05-02T11:06:25;6.03;;;2.70;;
75320;SDS011;68337;52.196;5.660;2023-05-02T11:09:28;9.57;;;2.35;;
75320;SDS011;68337;52.196;5.660;2023-05-02T11:11:44;9.50;;;2.45;;
75320;SDS011;68337;52.196;5.660;2023-05-02T11:14:11;7.95;;;2.80;;
75320;SDS011;68337;52.196;5.660;2023-05-02T11:19:26;6.07;;;2.53;;
75320;SDS011;68337;52.196;5.660;2023-05-02T11:24:51;4.78;;;2.28;;
75320;SDS011;68337;52.196;5.660;2023-05-02T11:30:01;4.95;;;2.13;;
75320;SDS011;68337;52.196;5.660;2023-05-02T11:35:15;6.38;;;2.28;;
75320;SDS011;68337;52.196;5.660;2023-05-02T11:37:42;6.53;;;2.22;;
75320;SDS011;68337;52.196;5.660;2023-05-02T11:40:13;7.07;;;2.25;;
75320;SDS011;68337;52.196;5.660;2023-05-02T11:42:40;9.60;;;2.85;;
75320;SDS011;68337;52.196;5.660;2023-05-02T11:45:06;7.85;;;2.60;;
75320;SDS011;68337;52.196;5.660;2023-05-02T11:47:32;7.53;;;2.45;;
75320;SDS011;68337;52.196;5.660;2023-05-02T11:49:57;5.25;;;2.20;;
75320;SDS011;68337;52.196;5.660;2023-05-02T11:52:26;7.43;;;2.47;;
75320;SDS011;68337;52.196;5.660;2023-05-02T11:54:54;5.20;;;2.00;;
75320;SDS011;68337;52.196;5.660;2023-05-02T11:57:21;10.02;;;2.53;;
75320;SDS011;68337;52.196;5.660;2023-05-02T11:59:53;7.00;;;2.53;;
75320;SDS011;68337;52.196;5.660;2023-05-02T12:02:44;9.00;;;2.25;;
75320;SDS011;68337;52.196;5.660;2023-05-02T12:05:12;8.48;;;2.63;;
75320;SDS011;68337;52.196;5.660;2023-05-02T12:10:08;7.40;;;2.65;;
75320;SDS011;68337;52.196;5.660;2023-05-02T12:12:34;10.20;;;2.75;;
75320;SDS011;68337;52.196;5.660;2023-05-02T12:15:04;9.95;;;2.40;;
75320;SDS011;68337;52.196;5.660;2023-05-02T12:17:38;9.18;;;2.47;;
75320;SDS011;68337;52.196;5.660;2023-05-02T12:20:06;5.07;;;2.10;;
75320;SDS011;68337;52.196;5.660;2023-05-02T12:22:36;7.57;;;2.45;;
75320;SDS011;68337;52.196;5.660;2023-05-02T12:25:03;12.65;;;2.95;;
75320;SDS011;68337;52.196;5.660;2023-05-02T12:27:30;8.07;;;2.35;;
75320;SDS011;68337;52.196;5.660;2023-05-02T12:29:59;8.10;;;2.53;;
75320;SDS011;68337;52.196;5.660;2023-05-02T12:32:29;6.80;;;2.45;;
75320;SDS011;68337;52.196;5.660;2023-05-02T12:34:58;5.63;;;2.35;;
75320;SDS011;68337;52.196;5.660;2023-05-02T12:37:26;8.63;;;2.25;;
75320;SDS011;68337;52.196;5.660;2023-05-02T12:39:53;5.93;;;2.30;;
75320;SDS011;68337;52.196;5.660;2023-05-02T12:42:21;9.00;;;2.80;;
75320;SDS011;68337;52.196;5.660;2023-05-02T12:44:48;4.57;;;2.08;;
75320;SDS011;68337;52.196;5.660;2023-05-02T12:47:18;7.93;;;2.40;;
75320;SDS011;68337;52.196;5.660;2023-05-02T12:49:53;7.35;;;2.42;;
75320;SDS011;68337;52.196;5.660;2023-05-02T12:53:06;4.18;;;2.28;;
75320;SDS011;68337;52.196;5.660;2023-05-02T12:55:24;4.70;;;2.13;;
75320;SDS011;68337;52.196;5.660;2023-05-02T13:00:26;5.90;;;2.13;;
75320;SDS011;68337;52.196;5.660;2023-05-02T13:02:52;4.85;;;2.10;;
75320;SDS011;68337;52.196;5.660;2023-05-02T13:05:18;6.43;;;2.63;;
75320;SDS011;68337;52.196;5.660;2023-05-02T13:07:44;7.30;;;2.20;;
75320;SDS011;68337;52.196;5.660;2023-05-02T13:10:10;5.13;;;2.10;;
75320;SDS011;68337;52.196;5.660;2023-05-02T13:12:37;5.63;;;2.83;;
75320;SDS011;68337;52.196;5.660;2023-05-02T13:15:04;7.25;;;2.35;;
75320;SDS011;68337;52.196;5.660;2023-05-02T13:17:31;9.52;;;2.53;;
75320;SDS011;68337;52.196;5.660;2023-05-02T13:19:57;7.53;;;2.90;;
75320;SDS011;68337;52.196;5.660;2023-05-02T13:22:23;8.85;;;2.65;;
75320;SDS011;68337;52.196;5.660;2023-05-02T13:24:49;6.68;;;2.05;;
75320;SDS011;68337;52.196;5.660;2023-05-02T13:27:15;11.30;;;2.30;;
75320;SDS011;68337;52.196;5.660;2023-05-02T13:29:42;6.63;;;2.25;;
75320;SDS011;68337;52.196;5.660;2023-05-02T13:32:09;5.18;;;2.20;;
75320;SDS011;68337;52.196;5.660;2023-05-02T13:34:34;4.05;;;2.00;;
75320;SDS011;68337;52.196;5.660;2023-05-02T13:37:00;8.10;;;2.45;;
75320;SDS011;68337;52.196;5.660;2023-05-02T13:39:26;4.97;;;2.20;;
75320;SDS011;68337;52.196;5.660;2023-05-02T13:41:51;8.55;;;2.15;;
75320;SDS011;68337;52.196;5.660;2023-05-02T13:44:17;4.55;;;1.90;;
75320;SDS011;68337;52.196;5.660;2023-05-02T13:46:43;5.25;;;2.20;;
75320;SDS011;68337;52.196;5.660;2023-05-02T13:49:08;7.03;;;2.60;;
75320;SDS011;68337;52.196;5.660;2023-05-02T13:51:34;6.35;;;2.38;;
75320;SDS011;68337;52.196;5.660;2023-05-02T13:54:00;9.77;;;2.15;;
75320;SDS011;68337;52.196;5.660;2023-05-02T13:56:26;4.00;;;1.90;;
75320;SDS011;68337;52.196;5.660;2023-05-02T13:58:52;5.78;;;2.10;;
75320;SDS011;68337;52.196;5.660;2023-05-02T14:01:18;10.25;;;2.10;;
75320;SDS011;68337;52.196;5.660;2023-05-02T14:03:43;4.22;;;2.03;;
75320;SDS011;68337;52.196;5.660;2023-05-02T14:06:09;4.50;;;2.03;;
75320;SDS011;68337;52.196;5.660;2023-05-02T14:08:35;7.28;;;1.90;;
75320;SDS011;68337;52.196;5.660;2023-05-02T14:11:02;4.85;;;2.10;;
75320;SDS011;68337;52.196;5.660;2023-05-02T14:13:28;6.35;;;2.35;;
75320;SDS011;68337;52.196;5.660;2023-05-02T14:15:53;7.25;;;2.15;;
75320;SDS011;68337;52.196;5.660;2023-05-02T14:18:19;10.35;;;2.10;;
75320;SDS011;68337;52.196;5.660;2023-05-02T14:20:45;11.63;;;2.08;;
75320;SDS011;68337;52.196;5.660;2023-05-02T14:23:11;5.30;;;2.17;;
75320;SDS011;68337;52.196;5.660;2023-05-02T14:25:37;10.77;;;2.70;;
75320;SDS011;68337;52.196;5.660;2023-05-02T14:28:03;8.70;;;2.38;;
75320;SDS011;68337;52.196;5.660;2023-05-02T14:30:29;8.20;;;2.22;;
75320;SDS011;68337;52.196;5.660;2023-05-02T14:32:58;7.40;;;2.72;;
75320;SDS011;68337;52.196;5.660;2023-05-02T14:35:23;5.95;;;2.25;;
75320;SDS011;68337;52.196;5.660;2023-05-02T14:37:49;5.53;;;2.30;;
75320;SDS011;68337;52.196;5.660;2023-05-02T14:40:15;6.93;;;2.15;;
75320;SDS011;68337;52.196;5.660;2023-05-02T14:42:41;3.22;;;1.77;;
75320;SDS011;68337;52.196;5.660;2023-05-02T14:45:08;5.70;;;2.38;;
75320;SDS011;68337;52.196;5.660;2023-05-02T14:47:34;6.68;;;1.90;;
75320;SDS011;68337;52.196;5.660;2023-05-02T14:50:01;9.90;;;2.45;;
75320;SDS011;68337;52.196;5.660;2023-05-02T14:52:27;4.10;;;1.92;;
75320;SDS011;68337;52.196;5.660;2023-05-02T14:54:53;6.07;;;2.20;;
75320;SDS011;68337;52.196;5.660;2023-05-02T14:57:18;8.95;;;2.00;;
75320;SDS011;68337;52.196;5.660;2023-05-02T14:59:44;8.25;;;2.00;;
75320;SDS011;68337;52.196;5.660;2023-05-02T15:02:10;4.03;;;1.95;;
75320;SDS011;68337;52.196;5.660;2023-05-02T15:04:36;4.82;;;2.25;;
75320;SDS011;68337;52.196;5.660;2023-05-02T15:07:02;3.60;;;2.03;;
75320;SDS011;68337;52.196;5.660;2023-05-02T15:09:28;5.38;;;2.40;;
75320;SDS011;68337;52.196;5.660;2023-05-02T15:11:54;4.13;;;2.40;;
75320;SDS011;68337;52.196;5.660;2023-05-02T15:14:20;5.57;;;2.40;;
75320;SDS011;68337;52.196;5.660;2023-05-02T15:16:46;4.90;;;1.67;;
75320;SDS011;68337;52.196;5.660;2023-05-02T15:19:12;7.97;;;2.20;;
75320;SDS011;68337;52.196;5.660;2023-05-02T15:21:38;7.13;;;2.38;;
75320;SDS011;68337;52.196;5.660;2023-05-02T15:24:04;2.45;;;1.73;;
75320;SDS011;68337;52.196;5.660;2023-05-02T15:26:30;3.38;;;2.10;;
75320;SDS011;68337;52.196;5.660;2023-05-02T15:28:56;5.10;;;1.92;;
75320;SDS011;68337;52.196;5.660;2023-05-02T15:31:22;5.07;;;2.17;;
75320;SDS011;68337;52.196;5.660;2023-05-02T15:33:54;3.70;;;1.55;;